createdAt,value
2022-12-27T00:00:10.658Z,2.50
2022-12-27T00:02:58.776Z,3.50
2022-12-27T00:05:26.957Z,4.50
2022-12-27T00:07:55.945Z,2.80
2022-12-27T00:10:23.990Z,3.80
2022-12-27T00:12:53.345Z,4.20
2022-12-27T00:15:21.289Z,3.80
2022-12-27T00:17:49.214Z,5.20
2022-12-27T00:20:17.156Z,4.60
2022-12-27T00:22:45.070Z,3.40
2022-12-27T00:25:13.175Z,5.90
2022-12-27T00:27:41.110Z,3.80
2022-12-27T00:30:10.254Z,4.40
2022-12-27T00:32:38.218Z,7.60
2022-12-27T00:35:06.707Z,5.80
2022-12-27T00:37:34.748Z,7.90
2022-12-27T00:40:02.785Z,5.90
2022-12-27T00:42:30.798Z,5.10
2022-12-27T00:44:58.876Z,7.40
2022-12-27T00:47:26.693Z,5.70
2022-12-27T00:49:54.534Z,4.20
2022-12-27T00:52:22.438Z,8.60
2022-12-27T00:54:50.311Z,10.50
2022-12-27T00:57:18.862Z,7.30
2022-12-27T00:59:47.755Z,7.70
2022-12-27T01:02:15.679Z,7.10
2022-12-27T01:04:43.559Z,4.80
2022-12-27T01:07:11.463Z,14.80
2022-12-27T01:09:39.386Z,13.20
2022-12-27T01:12:07.366Z,7.40
2022-12-27T01:14:35.561Z,12.70
2022-12-27T01:17:03.398Z,10.50
2022-12-27T01:19:31.487Z,13.80
2022-12-27T01:22:00.101Z,10.80
2022-12-27T01:24:28.055Z,6.70
2022-12-27T01:26:56.016Z,13.50
2022-12-27T01:29:23.966Z,6.80
2022-12-27T01:31:52.384Z,10.30
2022-12-27T01:34:20.432Z,9.70
2022-12-27T01:36:48.355Z,10.60
2022-12-27T01:39:16.395Z,7.60
2022-12-27T01:42:03.658Z,12.80
2022-12-27T01:44:44.188Z,13.10
2022-12-27T01:47:22.022Z,10.50
2022-12-27T01:50:19.255Z,9.40
2022-12-27T01:52:59.873Z,9.50
2022-12-27T01:55:50.945Z,7.00
2022-12-27T01:58:26.325Z,11.00
2022-12-27T02:00:54.898Z,9.80
2022-12-27T02:03:43.333Z,14.00
2022-12-27T02:06:12.795Z,12.10
2022-12-27T02:09:03.369Z,11.90
2022-12-27T02:11:52.284Z,8.30
2022-12-27T02:14:33.594Z,11.70
2022-12-27T02:17:07.166Z,12.70
2022-12-27T02:19:41.115Z,11.90
2022-12-27T02:23:11.019Z,7.20
2022-12-27T02:25:50.809Z,12.70
2022-12-27T02:28:24.440Z,11.70
2022-12-27T02:30:59.444Z,10.20
2022-12-27T02:33:30.177Z,12.30
2022-12-27T02:36:03.145Z,18.30
2022-12-27T02:38:35.587Z,10.90
2022-12-27T02:41:25.405Z,14.50
2022-12-27T02:44:16.690Z,11.70
2022-12-27T02:47:03.565Z,8.20
2022-12-27T02:49:57.505Z,13.30
2022-12-27T02:53:04.349Z,7.80
2022-12-27T02:56:17.339Z,7.20
2022-12-27T02:59:10.675Z,7.10
2022-12-27T03:02:25.318Z,13.70
2022-12-27T03:05:42.396Z,10.60
2022-12-27T03:08:17.480Z,8.50
2022-12-27T03:11:10.366Z,7.20
2022-12-27T03:14:18.720Z,12.00
2022-12-27T03:16:57.589Z,10.60
2022-12-27T03:19:58.178Z,10.10
2022-12-27T03:22:46.440Z,10.10
2022-12-27T03:25:30.258Z,12.40
2022-12-27T03:28:23.255Z,14.10
2022-12-27T03:31:16.670Z,10.40
2022-12-27T03:33:45.983Z,15.10
2022-12-27T03:36:37.238Z,9.50
2022-12-27T03:39:31.650Z,11.90
2022-12-27T03:42:26.028Z,11.80
2022-12-27T03:44:54.691Z,9.80
2022-12-27T03:47:47.326Z,5.10
2022-12-27T03:50:26.472Z,13.30
2022-12-27T03:53:29.040Z,7.60
2022-12-27T03:55:57.541Z,7.00
2022-12-27T03:58:25.477Z,13.70
2022-12-27T04:00:53.387Z,5.60
2022-12-27T04:03:21.362Z,14.00
2022-12-27T04:05:49.422Z,11.20
2022-12-27T04:08:36.078Z,7.70
2022-12-27T04:11:22.402Z,11.70
2022-12-27T04:14:09.010Z,12.40
2022-12-27T04:16:55.590Z,8.80
2022-12-27T04:19:42.186Z,12.00
2022-12-27T04:22:29.036Z,8.20
2022-12-27T04:25:15.599Z,11.00
2022-12-27T04:28:02.340Z,8.00
2022-12-27T04:30:49.019Z,9.70
2022-12-27T04:33:35.565Z,8.40
2022-12-27T04:36:06.442Z,13.20
2022-12-27T04:38:34.555Z,9.40
2022-12-27T04:41:21.067Z,8.40
2022-12-27T04:44:07.688Z,5.50
2022-12-27T04:46:53.993Z,12.10
2022-12-27T04:49:43.702Z,10.40
2022-12-27T04:52:40.489Z,11.40
2022-12-27T04:55:14.134Z,13.60
2022-12-27T04:57:42.236Z,10.60
2022-12-27T05:00:29.947Z,14.70
2022-12-27T05:02:58.408Z,7.20
2022-12-27T05:05:26.678Z,10.40
2022-12-27T05:08:13.174Z,9.10
2022-12-27T05:10:59.563Z,17.90
2022-12-27T05:13:46.471Z,7.90
2022-12-27T05:16:15.444Z,9.80
2022-12-27T05:18:43.706Z,7.40
2022-12-27T05:21:11.870Z,9.00
2022-12-27T05:24:04.948Z,7.20
2022-12-27T05:26:35.018Z,4.40
2022-12-27T05:29:03.253Z,9.10
2022-12-27T05:31:31.548Z,11.50
2022-12-27T05:33:59.804Z,11.60
2022-12-27T05:36:27.920Z,9.00
2022-12-27T05:38:56.228Z,11.10
2022-12-27T05:41:24.438Z,8.20
2022-12-27T05:43:52.470Z,11.20
2022-12-27T05:46:22.371Z,13.40
2022-12-27T05:48:50.331Z,17.80
2022-12-27T05:51:21.033Z,18.00
2022-12-27T05:53:49.607Z,15.50
2022-12-27T05:56:20.407Z,10.90
2022-12-27T05:58:48.294Z,17.30
2022-12-27T06:01:18.085Z,19.50
2022-12-27T06:03:46.344Z,9.80
2022-12-27T06:06:14.546Z,10.40
2022-12-27T06:08:45.160Z,14.20
2022-12-27T06:11:19.049Z,19.00
2022-12-27T06:13:52.961Z,17.50
2022-12-27T06:16:22.432Z,20.30
2022-12-27T06:18:50.518Z,18.70
2022-12-27T06:21:21.083Z,26.30
2022-12-27T06:23:50.368Z,21.60
2022-12-27T06:26:25.703Z,21.30
2022-12-27T06:28:55.939Z,17.00
2022-12-27T06:31:25.188Z,23.40
2022-12-27T06:33:53.904Z,17.10
2022-12-27T06:36:24.715Z,26.20
2022-12-27T06:38:52.716Z,29.10
2022-12-27T06:41:20.808Z,39.50
2022-12-27T06:43:53.796Z,29.60
2022-12-27T06:48:52.717Z,30.60
2022-12-27T06:51:22.025Z,28.40
2022-12-27T06:53:50.338Z,23.40
2022-12-27T06:56:21.356Z,40.70
2022-12-27T06:58:50.952Z,46.20
2022-12-27T07:01:25.681Z,33.80
2022-12-27T07:03:57.360Z,37.20
2022-12-27T07:06:27.548Z,30.80
2022-12-27T07:08:56.881Z,25.30
2022-12-27T07:11:25.661Z,15.70
2022-12-27T07:13:55.841Z,16.20
2022-12-27T07:16:27.367Z,10.60
2022-12-27T07:18:58.615Z,16.50
2022-12-27T07:21:28.405Z,20.80
2022-12-27T07:23:56.903Z,11.70
2022-12-27T07:26:30.078Z,16.30
2022-12-27T07:29:00.943Z,8.00
2022-12-27T07:31:33.091Z,9.30
2022-12-27T07:34:04.620Z,11.40
2022-12-27T07:36:40.256Z,13.10
2022-12-27T07:39:08.959Z,7.40
2022-12-27T07:41:37.766Z,8.80
2022-12-27T07:44:06.213Z,11.60
2022-12-27T07:46:34.307Z,11.70
2022-12-27T07:49:02.280Z,10.40
2022-12-27T07:51:30.484Z,11.30
2022-12-27T07:53:58.552Z,11.00
2022-12-27T07:56:28.101Z,16.00
2022-12-27T07:58:58.480Z,11.00
2022-12-27T08:01:29.071Z,11.60
2022-12-27T08:03:57.170Z,8.80
2022-12-27T08:06:31.916Z,7.70
2022-12-27T08:09:03.905Z,12.40
2022-12-27T08:11:31.953Z,11.80
2022-12-27T08:13:59.853Z,9.70
2022-12-27T08:16:28.064Z,10.20
2022-12-27T08:18:56.340Z,13.80
2022-12-27T08:21:24.248Z,11.20
2022-12-27T08:23:52.158Z,13.70
2022-12-27T08:26:20.048Z,9.20
2022-12-27T08:28:47.973Z,10.00
2022-12-27T08:31:16.038Z,12.90
2022-12-27T08:33:44.235Z,14.40
2022-12-27T08:36:45.331Z,10.20
2022-12-27T08:39:01.239Z,8.10
2022-12-27T08:41:29.619Z,6.60
2022-12-27T08:43:57.627Z,8.60
2022-12-27T08:46:25.951Z,8.20
2022-12-27T08:48:54.058Z,8.30
2022-12-27T08:51:32.619Z,11.90
2022-12-27T08:54:06.797Z,8.70
2022-12-27T08:56:34.793Z,9.10
2022-12-27T08:59:02.771Z,7.80
2022-12-27T09:01:30.993Z,9.60
2022-12-27T09:03:58.952Z,8.20
2022-12-27T09:06:27.884Z,8.60
2022-12-27T09:08:56.483Z,8.30
2022-12-27T09:11:29.167Z,9.70
2022-12-27T09:16:30.498Z,10.40
2022-12-27T09:19:00.106Z,7.40
2022-12-27T09:21:31.878Z,11.00
2022-12-27T09:24:00.272Z,20.60
2022-12-27T09:26:30.378Z,11.20
2022-12-27T09:28:59.326Z,21.60
2022-12-27T09:31:28.622Z,15.10
2022-12-27T09:33:57.750Z,12.00
2022-12-27T09:36:29.577Z,10.80
2022-12-27T09:38:58.718Z,13.60
2022-12-27T09:44:58.288Z,10.50
2022-12-27T09:48:20.070Z,9.10
2022-12-27T09:50:55.836Z,6.50
2022-12-27T09:53:49.322Z,6.60
2022-12-27T09:56:54.067Z,5.40
2022-12-27T09:59:29.617Z,11.00
2022-12-27T10:01:57.590Z,13.20
2022-12-27T10:04:39.459Z,11.00
2022-12-27T10:07:43.486Z,12.40
2022-12-27T10:10:56.262Z,14.20
2022-12-27T10:13:49.144Z,6.50
2022-12-27T10:16:30.075Z,12.50
2022-12-27T10:19:35.798Z,9.50
2022-12-27T10:22:36.082Z,16.60
2022-12-27T10:25:12.546Z,9.00
2022-12-27T10:27:41.251Z,7.10
2022-12-27T10:30:21.672Z,8.30
2022-12-27T10:32:49.946Z,11.60
2022-12-27T10:35:20.607Z,7.90
2022-12-27T10:37:49.452Z,9.00
2022-12-27T10:40:35.547Z,12.30
2022-12-27T10:43:08.421Z,11.30
2022-12-27T10:48:21.582Z,10.20
2022-12-27T10:51:03.542Z,8.40
2022-12-27T10:53:39.897Z,6.90
2022-12-27T10:56:14.834Z,8.30
2022-12-27T10:58:58.433Z,6.60
2022-12-27T11:01:32.652Z,11.70
2022-12-27T11:04:31.109Z,9.50
2022-12-27T11:07:02.523Z,14.30
2022-12-27T11:09:35.817Z,7.50
2022-12-27T11:12:28.710Z,10.90
2022-12-27T11:15:04.323Z,11.20
2022-12-27T11:17:39.235Z,12.30
2022-12-27T11:20:24.337Z,9.70
2022-12-27T11:23:10.936Z,11.10
2022-12-27T11:26:02.344Z,7.70
2022-12-27T11:28:45.073Z,9.30
2022-12-27T11:31:16.043Z,13.00
2022-12-27T11:33:54.997Z,7.80
2022-12-27T11:36:37.746Z,11.60
2022-12-27T11:39:07.662Z,9.20
2022-12-27T11:41:53.242Z,7.70
2022-12-27T11:44:33.115Z,6.40
2022-12-27T11:47:52.472Z,9.90
2022-12-27T11:50:59.968Z,7.80
2022-12-27T11:53:56.342Z,10.10
2022-12-27T11:56:37.791Z,10.10
2022-12-27T11:59:27.243Z,6.10
2022-12-27T12:02:45.754Z,9.70
2022-12-27T12:05:35.541Z,11.90
2022-12-27T12:08:59.798Z,9.80
2022-12-27T12:12:27.827Z,6.60
2022-12-27T12:15:14.982Z,8.90
2022-12-27T12:18:25.978Z,7.80
2022-12-27T12:21:47.966Z,8.50
2022-12-27T12:24:27.762Z,9.50
2022-12-27T12:27:10.779Z,8.10
2022-12-27T12:30:07.471Z,9.90
2022-12-27T12:32:59.715Z,7.70
2022-12-27T12:35:54.168Z,10.80
2022-12-27T12:38:28.308Z,6.10
2022-12-27T12:41:27.998Z,8.30
2022-12-27T12:44:23.441Z,12.50
2022-12-27T12:47:12.549Z,7.30
2022-12-27T12:49:50.713Z,9.00
2022-12-27T12:52:27.357Z,29.60
2022-12-27T12:55:38.765Z,8.50
2022-12-27T12:58:38.738Z,8.70
2022-12-27T13:01:14.394Z,9.30
2022-12-27T13:03:55.169Z,10.40
2022-12-27T13:06:50.960Z,7.80
2022-12-27T13:10:03.091Z,7.70
2022-12-27T13:12:52.940Z,9.00
2022-12-27T13:15:42.817Z,8.00
2022-12-27T13:18:39.654Z,11.70
2022-12-27T13:21:30.129Z,13.60
2022-12-27T13:24:41.526Z,8.00
2022-12-27T13:27:09.611Z,12.00
2022-12-27T13:30:25.012Z,14.90
2022-12-27T13:33:45.520Z,10.30
2022-12-27T13:36:37.246Z,9.90
2022-12-27T13:39:16.909Z,11.90
2022-12-27T13:41:54.317Z,11.00
2022-12-27T13:44:45.666Z,9.50
2022-12-27T13:47:44.518Z,10.60
2022-12-27T13:50:42.854Z,10.90
2022-12-27T13:53:50.392Z,9.20
2022-12-27T13:56:54.818Z,11.20
2022-12-27T14:00:11.439Z,11.30
2022-12-27T14:03:13.363Z,10.40
2022-12-27T14:05:41.353Z,8.70
2022-12-27T14:08:49.272Z,12.90
2022-12-27T14:11:51.596Z,10.90
2022-12-27T14:14:20.590Z,12.60
2022-12-27T14:17:20.605Z,9.10
2022-12-27T14:20:55.314Z,10.70
2022-12-27T14:23:42.424Z,10.50
2022-12-27T14:27:07.770Z,11.50
2022-12-27T14:30:31.243Z,11.20
2022-12-27T14:33:55.454Z,13.00
2022-12-27T14:36:26.103Z,10.00
2022-12-27T14:39:38.892Z,12.90
2022-12-27T14:42:44.083Z,11.90
2022-12-27T14:45:21.744Z,13.90
2022-12-27T14:48:20.793Z,8.90
2022-12-27T14:51:58.762Z,8.40
2022-12-27T14:54:31.922Z,12.70
2022-12-27T14:57:34.968Z,15.60
2022-12-27T15:00:21.638Z,11.50
2022-12-27T15:03:17.342Z,10.80
2022-12-27T15:06:27.091Z,12.60
2022-12-27T15:09:01.361Z,10.10
2022-12-27T15:11:40.234Z,9.80
2022-12-27T15:14:41.157Z,9.30
2022-12-27T15:17:34.132Z,7.70
2022-12-27T15:20:35.759Z,13.30
2022-12-27T15:23:12.464Z,9.90
2022-12-27T15:26:17.044Z,10.60
2022-12-27T15:29:09.342Z,13.60
2022-12-27T15:31:40.830Z,7.50
2022-12-27T15:34:32.745Z,13.20
2022-12-27T15:37:01.033Z,10.70
2022-12-27T15:39:35.086Z,12.50
2022-12-27T15:42:24.731Z,9.20
2022-12-27T15:45:30.361Z,11.70
2022-12-27T15:47:58.339Z,10.80
2022-12-27T15:51:15.370Z,13.60
2022-12-27T15:53:59.594Z,11.30
2022-12-27T15:56:44.364Z,13.50
2022-12-27T15:59:40.572Z,11.80
2022-12-27T16:02:17.811Z,13.60
2022-12-27T16:05:16.848Z,10.30
2022-12-27T16:08:39.014Z,12.00
2022-12-27T16:11:16.567Z,13.70
2022-12-27T16:14:27.079Z,15.70
2022-12-27T16:17:57.628Z,15.40
2022-12-27T16:20:31.597Z,13.30
2022-12-27T16:23:12.442Z,11.90
2022-12-27T16:25:48.339Z,20.00
2022-12-27T16:28:29.407Z,16.30
2022-12-27T16:31:12.391Z,15.30
2022-12-27T16:33:45.954Z,10.90
2022-12-27T16:36:39.452Z,14.80
2022-12-27T16:40:15.896Z,11.30
2022-12-27T16:43:25.840Z,11.00
2022-12-27T16:48:47.694Z,11.20
2022-12-27T16:49:55.441Z,15.00
2022-12-27T16:53:01.691Z,13.90
2022-12-27T17:00:05.491Z,10.10
2022-12-27T17:03:20.917Z,13.70
2022-12-27T17:09:19.358Z,18.20
2022-12-27T17:12:00.020Z,8.30
2022-12-27T17:14:38.524Z,15.80
2022-12-27T17:17:23.322Z,13.00
2022-12-27T17:20:00.676Z,12.00
2022-12-27T17:22:54.199Z,16.40
2022-12-27T17:25:32.025Z,15.20
2022-12-27T17:28:25.509Z,14.60
2022-12-27T17:31:34.446Z,16.90
2022-12-27T17:34:25.837Z,17.30
2022-12-27T17:37:14.868Z,12.50
2022-12-27T17:40:21.067Z,8.60
2022-12-27T17:43:54.092Z,8.70
2022-12-27T17:47:18.557Z,13.50
2022-12-27T17:49:47.421Z,14.40
2022-12-27T17:52:39.565Z,18.20
2022-12-27T17:55:48.622Z,18.30
2022-12-27T17:58:26.388Z,38.10
2022-12-27T18:01:17.723Z,53.70
2022-12-27T18:16:38.907Z,13.80
2022-12-27T18:19:07.068Z,12.80
2022-12-27T18:21:37.518Z,12.30
2022-12-27T18:24:37.218Z,20.20
2022-12-27T18:27:19.423Z,33.90
2022-12-27T18:29:46.891Z,35.00
2022-12-27T18:32:47.172Z,52.00
2022-12-27T18:35:18.528Z,26.30
2022-12-27T18:38:09.380Z,33.90
2022-12-27T18:40:38.395Z,26.90
2022-12-27T18:43:21.710Z,25.20
2022-12-27T18:45:48.758Z,24.40
2022-12-27T18:48:20.467Z,62.50
2022-12-27T18:51:04.908Z,58.20
2022-12-27T18:53:40.188Z,64.80
2022-12-27T18:56:34.250Z,41.50
2022-12-27T18:59:22.313Z,21.90
2022-12-27T19:01:49.199Z,39.70
2022-12-27T19:04:18.761Z,41.20
2022-12-27T19:06:56.580Z,30.00
2022-12-27T19:09:30.796Z,37.30
2022-12-27T19:12:03.665Z,41.80
2022-12-27T19:14:43.939Z,29.70
2022-12-27T19:17:28.089Z,39.50
2022-12-27T19:20:01.746Z,34.20
2022-12-27T19:22:42.054Z,36.10
2022-12-27T19:25:33.527Z,53.60
2022-12-27T19:28:05.588Z,85.00
2022-12-27T19:30:33.781Z,70.60
2022-12-27T19:33:02.668Z,94.50
2022-12-27T19:35:29.506Z,94.10
2022-12-27T19:38:01.758Z,73.90
2022-12-27T19:40:31.275Z,46.70
2022-12-27T19:42:58.339Z,19.40
2022-12-27T19:45:25.780Z,18.00
2022-12-27T19:47:54.140Z,27.40
2022-12-27T19:50:20.728Z,74.80
2022-12-27T19:52:49.879Z,57.70
2022-12-27T19:55:21.855Z,64.10
2022-12-27T19:57:48.729Z,95.80
2022-12-27T20:00:17.289Z,109.70
2022-12-27T20:02:44.522Z,97.10
2022-12-27T20:05:13.271Z,61.50
2022-12-27T20:07:40.391Z,51.00
2022-12-27T20:16:27.972Z,29.70
2022-12-27T20:18:57.949Z,23.90
2022-12-27T20:21:28.500Z,23.80
2022-12-27T20:23:56.555Z,18.60
2022-12-27T20:26:26.285Z,18.80
2022-12-27T20:28:54.374Z,22.20
2022-12-27T20:31:22.553Z,19.70
2022-12-27T20:33:55.639Z,28.70
2022-12-27T20:36:24.516Z,26.10
2022-12-27T20:38:52.829Z,17.30
2022-12-27T20:41:23.144Z,19.20
2022-12-27T20:43:56.743Z,32.30
2022-12-27T20:46:25.301Z,33.60
2022-12-27T20:48:55.406Z,30.90
2022-12-27T20:51:33.646Z,47.50
2022-12-27T20:54:03.964Z,42.70
2022-12-27T20:56:32.544Z,40.10
2022-12-27T20:59:06.751Z,43.90
2022-12-27T21:01:35.017Z,32.30
2022-12-27T21:04:04.736Z,24.50
2022-12-27T21:06:33.335Z,15.30
2022-12-27T21:09:20.224Z,23.20
2022-12-27T21:11:53.263Z,21.20
2022-12-27T21:14:21.812Z,25.90
2022-12-27T21:16:52.096Z,25.70
2022-12-27T21:19:25.120Z,21.70
2022-12-27T21:21:53.597Z,26.50
2022-12-27T21:24:22.207Z,25.40
2022-12-27T21:26:56.170Z,35.20
2022-12-27T21:29:27.260Z,27.20
2022-12-27T21:31:56.027Z,23.40
2022-12-27T21:34:25.950Z,14.30
2022-12-27T21:36:56.662Z,18.00
2022-12-27T21:39:33.913Z,17.20
2022-12-27T21:42:14.855Z,17.60
2022-12-27T21:44:43.623Z,21.10
2022-12-27T21:47:12.020Z,21.20
2022-12-27T21:49:41.776Z,17.90
2022-12-27T21:52:10.435Z,19.60
2022-12-27T21:54:40.312Z,19.50
2022-12-27T21:57:08.913Z,20.00
2022-12-27T21:59:37.587Z,19.90
2022-12-27T22:02:09.351Z,15.40
2022-12-27T22:04:38.356Z,16.50
2022-12-27T22:07:06.648Z,20.30
2022-12-27T22:09:37.945Z,20.30
2022-12-27T22:12:07.967Z,19.30
2022-12-27T22:14:37.191Z,18.10
2022-12-27T22:17:05.954Z,20.30
2022-12-27T22:19:33.929Z,19.60
2022-12-27T22:22:01.978Z,18.40
2022-12-27T22:24:29.980Z,18.90
2022-12-27T22:26:58.071Z,27.70
2022-12-27T22:29:30.413Z,21.50
2022-12-27T22:32:03.180Z,22.90
2022-12-27T22:34:31.275Z,24.10
2022-12-27T22:36:59.450Z,21.50
2022-12-27T22:39:29.136Z,27.20
2022-12-27T22:41:57.173Z,27.80
2022-12-27T22:44:28.068Z,20.90
2022-12-27T22:49:47.855Z,21.70
2022-12-27T22:52:16.174Z,24.50
2022-12-27T22:55:05.928Z,22.40
2022-12-27T22:57:35.452Z,24.00
2022-12-27T23:00:09.535Z,24.30
2022-12-27T23:02:38.037Z,23.20
2022-12-27T23:05:07.519Z,24.60
2022-12-27T23:08:05.117Z,21.00
2022-12-27T23:10:23.738Z,24.00
2022-12-27T23:12:51.928Z,24.70
2022-12-27T23:15:20.196Z,21.20
2022-12-27T23:17:48.454Z,26.70
2022-12-27T23:20:16.957Z,30.00
2022-12-27T23:22:45.352Z,26.80
2022-12-27T23:25:13.767Z,24.10
2022-12-27T23:27:42.019Z,26.30
2022-12-27T23:30:11.371Z,24.90
2022-12-27T23:32:39.333Z,25.50
2022-12-27T23:35:07.862Z,30.50
2022-12-27T23:37:35.915Z,24.50
2022-12-27T23:40:04.679Z,29.00
2022-12-27T23:42:32.664Z,24.90
2022-12-27T23:45:00.634Z,30.60
2022-12-27T23:47:29.114Z,21.90
2022-12-27T23:49:59.532Z,29.30
2022-12-27T23:52:27.597Z,23.40
2022-12-27T23:54:55.621Z,29.60
2022-12-27T23:57:23.596Z,27.00
2022-12-27T23:59:51.844Z,24.20
